Aeroporto :
LOGIN :

Iscrizione | Disclaimer

   EN    FR    IT 

 










Sommario :    VFR   VFR Marginale   IFR   IFR Intensivo   IFR Molto Intensivo
Visibilità : 
Base nubi : 
>= 8 km
>= 3000ft
5 / 8 km
1000 / 3000 ft
1500m / 5 km
500 / 1000 ft
800 / 1500m
200 / 500 ft
< 800m
< 200 ft
Simboli :   Temporali  Nebbia  Neve Forte  Precipitazioni Forti  Vento > 20 kt
SIGMETs :   Varie  Temporali  Ghiacco  Turbolenza  Onda orograficha  Ceneri Vulcaniche






- Altitudine del aeroporto : 1487 ft
- Codice IATA : MUC


EDDM - München Franz Josef Strauss

ULTIMO METAR :
  • 251550Z 26022KT 9999 -RA FEW030 SCT045 09/04 Q1003 NOSIG

METARs OBSOLETI :
  • 251520Z 26023KT 9999 -DZ FEW030 SCT045 09/05 Q1003 NOSIG
  • 251450Z 26024KT 9999 -RA FEW030 SCT045 09/05 Q1003 NOSIG
  • 251420Z 27019KT 9999 -RA FEW030 SCT045 10/05 Q1003 TEMPO 26020G30KT
  • 251350Z 26026G36KT 9999 -RA BKN038 11/04 Q1003 NOSIG
  • 251320Z 27028G39KT 9999 BKN042 11/04 Q1003 NOSIG

TAF TAF EDDM
Valido dal 25 a 12 ore il 26 a 18 ore UTC


251100Z 2512/2618 25014KT 9999 BKN030
BECMG 2512/2514 26015G25KT
TEMPO 2513/2515 27020G35KT
TEMPO 2517/2602 24012KT
TEMPO 2604/2618 27020G35KT
PROB30
TEMPO 2604/2607 SHRA BKN020CB
PROB30
TEMPO 2610/2618 27025G40KT 2000 TSSN BKN012CB



MetMap, La meteo Aeronautica in un colpo d'occhio ! - Copyright ORBIFLY Dicembre 2007 - Disclaimer

ORBIFLY MET'MAP TEAM :

Programmazione e sviluppo : Alexandra Zaïnal
Concezione : Baudouin d'Aumeries
Aiuto per la programmazione : Marc-Olivier Méhu
Supporto tecnico e logistico : Manuel Goepfert
Aiuto per la traduzione : Arnaldo La Scala

Contatto : metmap@orbifly.com




FONTI E CREDITI :

   NOAA